Time;durP1;ratioP1;P1;durP2;ratioP2;P2;SDS_P1;SDS_P2;PMS_P1;PMS_P2;Temp;Humidity;BMP_temperature;BMP_pressure;BME280_temperature;BME280_humidity;BME280_pressure;Samples;Min_cycle;Max_cycle;Signal;HPM_P1;HPM_P2
2021/08/29 00:01:58;;;;;;;14.98;8.57;;;;;;;13.91;89.00;100607.47;20672841;28;20050;-82
2021/08/29 00:12:00;;;;;;;14.65;8.48;;;;;;;13.86;88.14;100607.59;20708392;28;20134;-83
2021/08/29 00:22:03;;;;;;;11.88;8.02;;;;;;;13.86;88.98;100617.25;20707947;28;20042;-83
2021/08/29 00:32:06;;;;;;;15.05;8.95;;;;;;;13.79;89.39;100610.41;20687971;28;20050;-82
2021/08/29 00:42:08;;;;;;;15.52;9.18;;;;;;;13.78;90.45;100587.63;20705623;28;20042;-82
2021/08/29 00:52:12;;;;;;;14.30;9.32;;;;;;;13.76;90.64;100584.19;20692755;28;20481;-83
2021/08/29 01:02:21;;;;;;;14.80;9.38;;;;;;;13.83;90.49;100572.56;20664288;28;20120;-82
2021/08/29 01:12:26;;;;;;;16.52;10.23;;;;;;;13.85;90.65;100570.78;20664713;28;20057;-82
2021/08/29 01:22:31;;;;;;;16.95;10.85;;;;;;;13.85;90.85;100560.25;20680942;28;20046;-83
2021/08/29 01:32:33;;;;;;;14.35;9.13;;;;;;;13.83;90.95;100551.53;20661119;28;20046;-83
2021/08/29 01:42:37;;;;;;;17.05;10.57;;;;;;;13.86;91.15;100557.56;20670829;28;20054;-82
2021/08/29 01:52:39;;;;;;;18.07;11.93;;;;;;;13.78;91.75;100549.00;20694323;28;20050;-82
2021/08/29 02:02:42;;;;;;;19.35;11.10;;;;;;;13.63;92.05;100549.41;20689760;28;20100;-82
2021/08/29 02:13:09;;;;;;;16.05;10.57;;;;;;;13.66;91.85;100544.09;20689903;28;20041;-82
2021/08/29 02:23:14;;;;;;;15.20;9.73;;;;;;;13.56;91.54;100538.19;20706015;28;20111;-82
2021/08/29 02:33:16;;;;;;;12.97;8.73;;;;;;;13.52;92.24;100531.28;20690483;28;20424;-82
2021/08/29 02:43:19;;;;;;;13.05;7.95;;;;;;;13.54;92.08;100534.72;20678070;28;20504;-82
2021/08/29 02:53:22;;;;;;;11.80;7.20;;;;;;;13.63;92.26;100532.78;20677032;28;20042;-81
2021/08/29 03:03:24;;;;;;;11.27;6.55;;;;;;;13.58;92.92;100532.88;20693571;28;20112;-82
2021/08/29 03:13:28;;;;;;;9.02;5.75;;;;;;;13.62;92.66;100520.53;20684486;28;20078;-82
2021/08/29 03:23:30;;;;;;;9.30;6.38;;;;;;;13.73;93.13;100511.44;20684394;28;20054;-82
2021/08/29 03:33:33;;;;;;;10.60;5.63;;;;;;;13.66;93.55;100501.13;20689310;28;20505;-82
2021/08/29 03:43:35;;;;;;;8.90;6.25;;;;;;;13.65;93.49;100505.50;20676153;28;20485;-82
2021/08/29 03:53:37;;;;;;;7.82;5.57;;;;;;;13.65;93.91;100494.13;20688173;28;20104;-82
2021/08/29 04:03:39;;;;;;;9.00;5.95;;;;;;;13.73;94.01;100494.78;20690217;28;20042;-82
2021/08/29 04:13:42;;;;;;;9.40;6.18;;;;;;;13.76;93.48;100487.66;20671547;28;20062;-82
2021/08/29 04:23:45;;;;;;;10.38;6.22;;;;;;;13.83;93.21;100494.47;20673604;28;20053;-82
2021/08/29 04:33:47;;;;;;;10.50;6.65;;;;;;;13.87;93.14;100484.75;20672210;28;20054;-82
2021/08/29 04:43:51;;;;;;;12.37;6.80;;;;;;;13.91;93.48;100491.66;20672153;28;20053;-82
2021/08/29 04:53:52;;;;;;;8.13;5.40;;;;;;;13.92;92.97;100496.00;20683813;28;20050;-82
2021/08/29 05:03:58;;;;;;;7.32;4.25;;;;;;;13.99;92.31;100497.56;20667233;28;20047;-83
2021/08/29 05:13:59;;;;;;;6.60;4.30;;;;;;;14.06;92.10;100496.47;20667381;28;20043;-82
2021/08/29 05:24:04;;;;;;;7.93;4.45;;;;;;;14.10;92.36;100499.88;20731367;28;20330;-82
2021/08/29 05:34:06;;;;;;;6.32;3.90;;;;;;;14.16;92.96;100506.75;20683446;28;20046;-82
2021/08/29 05:44:16;;;;;;;6.43;3.70;;;;;;;14.23;92.81;100518.81;20672281;28;20125;-82
2021/08/29 05:54:18;;;;;;;5.32;3.33;;;;;;;14.31;92.00;100514.19;20668654;28;20058;-83
2021/08/29 06:04:19;;;;;;;5.93;2.95;;;;;;;14.33;91.46;100510.63;20652277;28;20065;-82
2021/08/29 06:14:21;;;;;;;5.05;2.90;;;;;;;14.38;91.53;100510.50;20674549;28;20101;-82
2021/08/29 06:24:25;;;;;;;6.63;3.00;;;;;;;14.60;90.81;100505.44;20662549;28;20485;-83
2021/08/29 06:34:27;;;;;;;6.05;2.58;;;;;;;14.82;90.45;100509.16;20690177;28;20571;-83
2021/08/29 06:44:29;;;;;;;4.88;2.53;;;;;;;14.81;90.11;100506.59;20686780;28;20054;-82
2021/08/29 06:54:30;;;;;;;6.25;2.78;;;;;;;14.78;90.91;100504.03;20665090;28;20051;-83
2021/08/29 07:04:32;;;;;;;7.13;2.80;;;;;;;14.89;90.66;100512.44;20660455;28;20066;-83
2021/08/29 07:14:34;;;;;;;5.32;2.35;;;;;;;14.90;90.62;100506.28;20676760;28;20050;-83
2021/08/29 07:24:36;;;;;;;5.63;2.80;;;;;;;15.07;89.71;100509.22;20673651;28;20492;-83
2021/08/29 07:34:40;;;;;;;3.40;1.85;;;;;;;15.14;88.15;100505.50;20654310;28;20046;-83
2021/08/29 07:44:42;;;;;;;7.63;2.50;;;;;;;15.35;88.65;100505.69;20655284;28;20051;-84
2021/08/29 07:54:44;;;;;;;3.90;2.40;;;;;;;15.27;89.98;100510.34;20666766;28;20054;-84
2021/08/29 08:04:46;;;;;;;6.25;2.80;;;;;;;15.28;89.77;100517.34;20671104;28;20564;-84
2021/08/29 08:14:48;;;;;;;3.95;2.33;;;;;;;15.48;89.79;100519.34;20656108;28;20047;-83
2021/08/29 08:24:49;;;;;;;3.40;2.03;;;;;;;15.48;88.54;100519.34;20678119;28;20410;-83
2021/08/29 08:34:51;;;;;;;4.28;1.92;;;;;;;15.63;86.77;100526.72;20651201;28;20081;-83
2021/08/29 08:44:52;;;;;;;4.13;1.77;;;;;;;15.77;86.02;100528.91;20675003;28;20464;-84
2021/08/29 08:54:57;;;;;;;3.20;1.60;;;;;;;15.84;84.54;100527.78;20675518;28;20112;-84
2021/08/29 09:04:59;;;;;;;4.00;2.20;;;;;;;16.00;83.24;100528.97;20673557;28;20049;-83
2021/08/29 09:15:00;;;;;;;3.70;1.88;;;;;;;16.30;82.59;100524.34;20654859;28;20097;-82
2021/08/29 09:25:02;;;;;;;3.42;2.00;;;;;;;16.20;82.70;100522.97;20656801;28;20088;-84
2021/08/29 09:35:07;;;;;;;6.47;3.15;;;;;;;16.34;83.72;100525.94;20673085;28;20077;-84
2021/08/29 09:45:18;;;;;;;5.60;2.70;;;;;;;16.15;83.66;100528.41;20657291;28;20086;-84
2021/08/29 09:55:27;;;;;;;5.15;3.08;;;;;;;16.05;83.39;100541.97;20676174;28;20054;-84
2021/08/29 10:05:29;;;;;;;6.47;3.50;;;;;;;15.55;84.94;100532.25;20671769;28;20562;-83
2021/08/29 10:15:33;;;;;;;6.03;3.78;;;;;;;15.84;84.45;100533.91;20682406;28;20097;-83
2021/08/29 10:25:38;;;;;;;6.87;4.27;;;;;;;15.96;84.68;100537.91;20668471;28;20145;-83
2021/08/29 10:35:42;;;;;;;;;;;;;;;15.87;86.57;100543.53;20708998;28;20050;-83
2021/08/29 10:45:44;;;;;;;6.22;4.07;;;;;;;15.78;84.72;100534.13;20699780;28;20233;-85
2021/08/29 10:55:45;;;;;;;6.90;4.30;;;;;;;15.75;86.59;100536.00;20659502;28;20047;-83
2021/08/29 11:05:51;;;;;;;7.93;5.22;;;;;;;15.82;84.01;100524.34;20677008;28;20054;-82
2021/08/29 11:16:15;;;;;;;9.13;4.95;;;;;;;16.15;83.88;100525.78;20655685;28;20109;-84
2021/08/29 11:26:40;;;;;;;10.60;5.60;;;;;;;16.25;85.61;100517.50;20690147;28;20057;-84
2021/08/29 11:36:47;;;;;;;8.60;5.82;;;;;;;16.41;82.58;100523.94;20676466;28;20581;-83
2021/08/29 11:46:52;;;;;;;14.32;6.38;;;;;;;16.45;82.43;100519.38;20678933;28;20081;-84
2021/08/29 11:56:53;;;;;;;7.82;5.35;;;;;;;16.47;82.68;100522.81;20667742;28;20149;-85
2021/08/29 12:07:08;;;;;;;9.13;6.00;;;;;;;16.23;79.54;100516.69;20659361;28;20051;-84
2021/08/29 12:17:12;;;;;;;10.53;6.00;;;;;;;16.17;81.32;100520.41;20672788;28;20050;-84
2021/08/29 12:27:17;;;;;;;9.00;6.05;;;;;;;16.16;81.70;100516.91;20673592;28;20500;-84
2021/08/29 12:37:19;;;;;;;10.00;6.00;;;;;;;16.24;81.19;100521.03;20667760;28;20116;-84
2021/08/29 12:47:21;;;;;;;9.25;6.20;;;;;;;16.21;81.51;100516.75;20662915;28;20484;-84
2021/08/29 12:57:24;;;;;;;9.88;6.22;;;;;;;16.39;81.64;100509.91;20682987;28;20050;-84
2021/08/29 13:07:32;;;;;;;8.18;5.75;;;;;;;16.34;80.92;100506.59;20681220;28;20084;-81
2021/08/29 13:17:44;;;;;;;10.07;6.30;;;;;;;16.41;81.99;100505.44;20664724;28;20105;-83
2021/08/29 13:27:51;;;;;;;8.93;6.07;;;;;;;16.19;80.86;100504.50;20682042;28;20046;-83
2021/08/29 13:37:56;;;;;;;10.77;5.88;;;;;;;16.15;82.35;100494.06;20699160;28;20042;-83
2021/08/29 13:48:01;;;;;;;10.82;6.47;;;;;;;16.13;81.46;100505.59;20714366;28;20061;-83
2021/08/29 13:58:05;;;;;;;8.75;5.78;;;;;;;16.24;81.54;100505.19;20692224;28;20085;-83
2021/08/29 14:08:07;;;;;;;11.00;6.97;;;;;;;16.33;81.63;100507.50;20720663;28;20050;-83
2021/08/29 14:18:09;;;;;;;10.00;6.50;;;;;;;16.23;84.00;100492.91;20678834;28;20073;-83
2021/08/29 14:28:14;;;;;;;10.65;7.15;;;;;;;16.20;83.72;100479.81;20697818;28;20116;-83
2021/08/29 14:38:16;;;;;;;21.80;14.97;;;;;;;16.18;84.45;100487.78;20701276;28;20046;-83
2021/08/29 14:48:18;;;;;;;12.65;7.80;;;;;;;16.19;85.08;100489.50;20690748;28;20418;-83
2021/08/29 14:58:20;;;;;;;10.45;6.68;;;;;;;16.37;85.31;100480.03;20691080;28;20046;-83
2021/08/29 15:08:21;;;;;;;10.68;6.60;;;;;;;16.44;84.57;100478.03;20671859;28;20046;-83
2021/08/29 15:18:26;;;;;;;10.60;6.75;;;;;;;16.54;85.53;100476.75;20670638;28;20074;-83
2021/08/29 15:28:29;;;;;;;9.82;6.32;;;;;;;16.45;86.28;100469.19;20677762;28;20424;-84
2021/08/29 15:38:33;;;;;;;9.52;6.03;;;;;;;16.30;86.48;100473.28;20702311;28;20038;-83
2021/08/29 15:48:35;;;;;;;10.13;6.20;;;;;;;15.98;85.81;100462.13;20738957;28;20724;-84
2021/08/29 15:58:36;;;;;;;10.93;6.93;;;;;;;15.94;87.51;100455.22;20677234;28;20488;-82
2021/08/29 16:08:38;;;;;;;11.07;7.40;;;;;;;16.05;88.65;100452.19;20683792;28;20046;-82
2021/08/29 16:18:40;;;;;;;10.88;7.28;;;;;;;16.07;87.78;100451.22;20667225;28;20116;-82
2021/08/29 16:28:42;;;;;;;13.52;9.07;;;;;;;16.01;89.40;100456.75;20679526;28;20050;-81
2021/08/29 16:38:44;;;;;;;16.30;10.43;;;;;;;15.87;88.12;100453.75;20660732;28;20109;-82
2021/08/29 16:48:46;;;;;;;8.10;4.40;;;;;;;15.73;85.57;100462.16;20677712;28;20046;-81
2021/08/29 16:58:48;;;;;;;9.07;5.78;;;;;;;15.44;90.30;100463.16;20665551;28;20060;-82
2021/08/29 17:08:50;;;;;;;10.23;5.57;;;;;;;15.39;91.15;100467.75;20690031;28;20039;-82
2021/08/29 17:18:52;;;;;;;8.75;4.97;;;;;;;15.32;91.21;100466.22;20683613;28;20046;-83
2021/08/29 17:28:54;;;;;;;7.50;4.25;;;;;;;15.23;90.96;100461.25;20691852;28;20050;-82
2021/08/29 17:38:56;;;;;;;6.78;4.55;;;;;;;15.32;91.45;100460.94;20661400;28;20404;-82
2021/08/29 17:48:58;;;;;;;6.90;4.45;;;;;;;15.31;91.84;100469.75;20697949;28;20054;-83
2021/08/29 17:59:00;;;;;;;9.55;5.32;;;;;;;15.33;90.74;100463.53;20682149;28;20042;-82
2021/08/29 18:09:02;;;;;;;7.90;4.40;;;;;;;15.21;91.07;100474.50;20666690;28;20042;-82
2021/08/29 18:19:05;;;;;;;6.13;3.30;;;;;;;15.15;89.88;100466.78;20679247;28;20050;-82
2021/08/29 18:29:09;;;;;;;6.07;3.55;;;;;;;15.11;90.02;100483.63;20684761;28;20057;-82
2021/08/29 18:39:11;;;;;;;7.03;3.27;;;;;;;14.98;90.94;100485.78;20704912;28;20566;-82
2021/08/29 18:49:13;;;;;;;6.13;3.10;;;;;;;15.00;91.13;100486.63;20668551;28;20465;-82
2021/08/29 18:59:14;;;;;;;5.85;3.17;;;;;;;14.95;91.37;100499.09;20682609;28;20046;-82
2021/08/29 19:09:16;;;;;;;6.95;3.17;;;;;;;14.96;91.37;100495.53;20664398;28;20042;-82
2021/08/29 19:19:18;;;;;;;6.07;3.50;;;;;;;14.99;91.39;100495.41;20666911;28;20101;-81
2021/08/29 19:29:20;;;;;;;8.38;4.13;;;;;;;14.99;91.47;100489.28;20674518;28;20054;-82
2021/08/29 19:39:22;;;;;;;6.22;3.70;;;;;;;14.91;91.18;100500.09;20666592;28;20097;-82
2021/08/29 19:49:24;;;;;;;6.18;3.60;;;;;;;14.94;91.29;100501.75;20683296;28;20046;-81
2021/08/29 19:59:26;;;;;;;7.90;3.78;;;;;;;14.90;91.60;100506.28;20680946;28;20120;-81
2021/08/29 20:09:27;;;;;;;7.47;3.60;;;;;;;14.85;92.29;100492.38;20681175;28;20042;-81
2021/08/29 20:19:29;;;;;;;8.25;3.78;;;;;;;14.77;92.33;100486.50;20683163;28;20112;-81
2021/08/29 20:29:30;;;;;;;6.40;3.80;;;;;;;14.76;92.58;100479.50;20664229;28;20488;-81
2021/08/29 20:39:32;;;;;;;5.75;3.10;;;;;;;14.90;91.75;100472.03;20683232;28;20410;-81
2021/08/29 20:49:34;;;;;;;6.68;3.20;;;;;;;14.71;92.91;100471.75;20720072;28;20050;-81
2021/08/29 20:59:36;;;;;;;5.60;2.80;;;;;;;14.75;92.95;100477.75;20694222;28;20428;-81
2021/08/29 21:09:40;;;;;;;6.18;2.65;;;;;;;14.78;92.47;100462.72;20656426;28;20076;-81
2021/08/29 21:19:42;;;;;;;5.30;2.80;;;;;;;14.89;92.67;100465.84;20672124;28;20046;-81
2021/08/29 21:29:43;;;;;;;4.53;2.38;;;;;;;14.87;92.79;100461.56;20667180;28;20054;-81
2021/08/29 21:39:45;;;;;;;4.40;2.53;;;;;;;14.79;92.45;100455.66;20649392;28;20046;-81
2021/08/29 21:49:47;;;;;;;9.50;3.60;;;;;;;14.66;93.04;100462.22;20649189;28;20043;-81
2021/08/29 21:59:49;;;;;;;10.68;3.80;;;;;;;14.62;92.71;100459.72;20676849;28;20420;-80
2021/08/29 22:09:51;;;;;;;9.38;4.35;;;;;;;14.70;92.40;100445.41;20683662;28;20046;-80
2021/08/29 22:19:53;;;;;;;8.75;3.50;;;;;;;14.67;92.64;100458.72;20675155;28;20555;-80
2021/08/29 22:29:58;;;;;;;5.38;3.17;;;;;;;14.73;92.83;100451.47;20677737;28;20054;-80
2021/08/29 22:40:14;;;;;;;6.13;2.90;;;;;;;14.70;92.82;100462.09;20672288;28;20055;-80
2021/08/29 22:50:16;;;;;;;6.25;2.97;;;;;;;14.74;92.36;100452.31;20706798;28;20051;-79
2021/08/29 23:00:20;;;;;;;4.80;2.40;;;;;;;14.74;92.72;100458.44;20675064;28;20042;-80
2021/08/29 23:10:22;;;;;;;8.02;2.80;;;;;;;14.72;92.40;100459.44;20673263;28;20050;-80
2021/08/29 23:20:24;;;;;;;5.13;2.80;;;;;;;14.73;92.65;100466.41;20672972;28;20097;-80
2021/08/29 23:30:26;;;;;;;8.13;3.15;;;;;;;14.66;92.77;100454.31;20670809;28;20026;-79
2021/08/29 23:40:29;;;;;;;4.95;3.00;;;;;;;14.69;92.72;100456.88;20675692;28;20054;-80
2021/08/29 23:50:31;;;;;;;6.97;3.17;;;;;;;14.72;92.22;100448.88;20664619;28;20648;-79
